sensor_id;sensor_type;location;lat;lon;timestamp;pressure;altitude;pressure_sealevel;temperature;humidity
9281;BME280;4679;47.966;7.958;2023-03-13T07:00:57;96524.91;;;13.45;69.28
9281;BME280;4679;47.966;7.958;2023-03-13T07:03:00;96524.13;;;13.44;69.05
9281;BME280;4679;47.966;7.958;2023-03-13T07:05:01;96520.34;;;13.50;69.06
9281;BME280;4679;47.966;7.958;2023-03-13T07:07:05;96525.69;;;13.50;69.32
9281;BME280;4679;47.966;7.958;2023-03-13T07:09:06;96531.03;;;13.45;69.20
9281;BME280;4679;47.966;7.958;2023-03-13T07:11:11;96536.94;;;13.42;68.82
9281;BME280;4679;47.966;7.958;2023-03-13T07:13:12;96535.34;;;13.41;69.29
9281;BME280;4679;47.966;7.958;2023-03-13T07:15:14;96550.53;;;13.41;69.35
9281;BME280;4679;47.966;7.958;2023-03-13T07:17:18;96540.34;;;13.48;69.47
9281;BME280;4679;47.966;7.958;2023-03-13T07:19:19;96547.03;;;13.45;69.32
9281;BME280;4679;47.966;7.958;2023-03-13T07:21:21;96543.53;;;13.50;69.25
9281;BME280;4679;47.966;7.958;2023-03-13T07:23:24;96524.88;;;13.55;69.05
9281;BME280;4679;47.966;7.958;2023-03-13T07:25:26;96529.91;;;13.56;68.94
9281;BME280;4679;47.966;7.958;2023-03-13T07:27:28;96544.03;;;13.57;69.07
9281;BME280;4679;47.966;7.958;2023-03-13T07:29:30;96537.91;;;13.56;69.08
9281;BME280;4679;47.966;7.958;2023-03-13T07:31:31;96541.94;;;13.54;69.46
9281;BME280;4679;47.966;7.958;2023-03-13T07:33:35;96533.94;;;13.54;69.28
9281;BME280;4679;47.966;7.958;2023-03-13T07:35:38;96551.19;;;13.61;69.07
9281;BME280;4679;47.966;7.958;2023-03-13T07:37:40;96530.38;;;13.63;69.25
9281;BME280;4679;47.966;7.958;2023-03-13T07:39:42;96532.25;;;13.63;69.12
9281;BME280;4679;47.966;7.958;2023-03-13T07:41:44;96534.66;;;13.64;69.24
9281;BME280;4679;47.966;7.958;2023-03-13T07:43:46;96513.59;;;13.63;69.35
9281;BME280;4679;47.966;7.958;2023-03-13T07:45:54;96516.75;;;13.70;69.33
9281;BME280;4679;47.966;7.958;2023-03-13T07:47:56;96528.94;;;13.81;68.90
9281;BME280;4679;47.966;7.958;2023-03-13T07:49:59;96538.97;;;13.94;68.76
9281;BME280;4679;47.966;7.958;2023-03-13T07:52:01;96514.59;;;14.06;68.26
9281;BME280;4679;47.966;7.958;2023-03-13T07:54:03;96510.81;;;14.12;68.39
9281;BME280;4679;47.966;7.958;2023-03-13T07:56:06;96524.16;;;14.12;68.43
9281;BME280;4679;47.966;7.958;2023-03-13T07:58:08;96526.78;;;14.17;68.00
9281;BME280;4679;47.966;7.958;2023-03-13T08:00:10;96539.84;;;14.19;68.32
9281;BME280;4679;47.966;7.958;2023-03-13T08:02:15;96511.78;;;14.21;67.99
9281;BME280;4679;47.966;7.958;2023-03-13T08:04:17;96506.69;;;14.25;67.83
9281;BME280;4679;47.966;7.958;2023-03-13T08:06:22;96505.59;;;14.26;67.89
9281;BME280;4679;47.966;7.958;2023-03-13T08:08:24;96499.66;;;14.34;67.78
9281;BME280;4679;47.966;7.958;2023-03-13T08:10:26;96493.41;;;14.49;67.48
9281;BME280;4679;47.966;7.958;2023-03-13T08:12:27;96491.19;;;14.56;66.71
9281;BME280;4679;47.966;7.958;2023-03-13T08:14:29;96483.69;;;14.58;67.19
9281;BME280;4679;47.966;7.958;2023-03-13T08:16:32;96488.47;;;14.61;66.49
9281;BME280;4679;47.966;7.958;2023-03-13T08:18:36;96485.75;;;14.66;66.89
9281;BME280;4679;47.966;7.958;2023-03-13T08:20:38;96471.50;;;14.70;66.74
9281;BME280;4679;47.966;7.958;2023-03-13T08:22:41;96489.13;;;14.71;66.61
9281;BME280;4679;47.966;7.958;2023-03-13T08:24:44;96487.25;;;14.72;66.46
9281;BME280;4679;47.966;7.958;2023-03-13T08:26:45;96480.84;;;14.73;66.35
9281;BME280;4679;47.966;7.958;2023-03-13T08:28:51;96485.91;;;14.74;66.24
9281;BME280;4679;47.966;7.958;2023-03-13T08:30:52;96473.84;;;14.77;66.03
9281;BME280;4679;47.966;7.958;2023-03-13T08:32:55;96491.47;;;14.78;66.26
9281;BME280;4679;47.966;7.958;2023-03-13T08:34:57;96472.69;;;14.83;66.11
9281;BME280;4679;47.966;7.958;2023-03-13T08:36:58;96478.53;;;14.85;65.71
9281;BME280;4679;47.966;7.958;2023-03-13T08:39:04;96459.66;;;15.00;65.66
9281;BME280;4679;47.966;7.958;2023-03-13T08:41:06;96467.84;;;15.09;65.36
9281;BME280;4679;47.966;7.958;2023-03-13T08:43:08;96466.09;;;15.18;64.87
9281;BME280;4679;47.966;7.958;2023-03-13T08:45:09;96459.03;;;15.27;65.18
9281;BME280;4679;47.966;7.958;2023-03-13T08:47:11;96459.09;;;15.41;64.75
9281;BME280;4679;47.966;7.958;2023-03-13T08:49:13;96457.94;;;15.66;64.45
9281;BME280;4679;47.966;7.958;2023-03-13T08:51:18;96450.16;;;15.83;63.66
9281;BME280;4679;47.966;7.958;2023-03-13T08:53:20;96464.25;;;15.89;63.55
9281;BME280;4679;47.966;7.958;2023-03-13T08:55:23;96451.19;;;15.87;63.44
9281;BME280;4679;47.966;7.958;2023-03-13T08:57:24;96454.66;;;15.88;63.29
9281;BME280;4679;47.966;7.958;2023-03-13T08:59:27;96440.47;;;15.87;64.03
9281;BME280;4679;47.966;7.958;2023-03-13T09:01:30;96438.09;;;15.86;63.69
9281;BME280;4679;47.966;7.958;2023-03-13T09:03:33;96444.22;;;15.86;63.06
9281;BME280;4679;47.966;7.958;2023-03-13T09:05:36;96419.88;;;15.88;63.11
9281;BME280;4679;47.966;7.958;2023-03-13T09:07:38;96412.03;;;15.91;62.80
9281;BME280;4679;47.966;7.958;2023-03-13T09:09:40;96414.13;;;15.94;62.79
9281;BME280;4679;47.966;7.958;2023-03-13T09:11:43;96401.22;;;15.96;62.41
9281;BME280;4679;47.966;7.958;2023-03-13T09:13:46;96400.94;;;15.98;62.27
9281;BME280;4679;47.966;7.958;2023-03-13T09:15:54;96402.25;;;16.00;63.14
9281;BME280;4679;47.966;7.958;2023-03-13T09:17:55;96415.31;;;16.02;62.87
9281;BME280;4679;47.966;7.958;2023-03-13T09:19:57;96404.41;;;15.98;62.46
9281;BME280;4679;47.966;7.958;2023-03-13T09:21:59;96416.50;;;15.96;62.76
9281;BME280;4679;47.966;7.958;2023-03-13T09:24:01;96394.81;;;16.11;62.08
9281;BME280;4679;47.966;7.958;2023-03-13T09:26:04;96393.34;;;16.18;62.35
9281;BME280;4679;47.966;7.958;2023-03-13T09:28:07;96378.97;;;16.28;62.02
9281;BME280;4679;47.966;7.958;2023-03-13T09:30:10;96391.53;;;16.55;61.39
9281;BME280;4679;47.966;7.958;2023-03-13T09:32:12;96379.38;;;16.63;60.88
9281;BME280;4679;47.966;7.958;2023-03-13T09:34:13;96384.72;;;16.49;61.38
9281;BME280;4679;47.966;7.958;2023-03-13T09:36:15;96380.81;;;16.55;61.17
9281;BME280;4679;47.966;7.958;2023-03-13T09:38:18;96380.50;;;16.84;60.79
9281;BME280;4679;47.966;7.958;2023-03-13T09:40:21;96376.16;;;16.74;60.71
9281;BME280;4679;47.966;7.958;2023-03-13T09:42:33;96363.84;;;16.73;60.59
9281;BME280;4679;47.966;7.958;2023-03-13T09:44:44;96355.31;;;16.71;60.68
9281;BME280;4679;47.966;7.958;2023-03-13T09:46:52;96356.81;;;16.77;60.94
9281;BME280;4679;47.966;7.958;2023-03-13T09:48:59;96347.88;;;17.04;60.42
9281;BME280;4679;47.966;7.958;2023-03-13T09:51:07;96359.59;;;17.31;59.69
9281;BME280;4679;47.966;7.958;2023-03-13T09:53:14;96349.16;;;17.51;59.30
9281;BME280;4679;47.966;7.958;2023-03-13T09:55:18;96340.31;;;17.73;58.77
9281;BME280;4679;47.966;7.958;2023-03-13T09:57:31;96341.81;;;17.88;58.51
9281;BME280;4679;47.966;7.958;2023-03-13T09:59:40;96329.16;;;17.88;58.44
9281;BME280;4679;47.966;7.958;2023-03-13T10:01:48;96339.00;;;17.93;58.29
9281;BME280;4679;47.966;7.958;2023-03-13T10:03:59;96309.81;;;18.00;58.26
9281;BME280;4679;47.966;7.958;2023-03-13T10:06:05;96314.59;;;18.12;58.25
9281;BME280;4679;47.966;7.958;2023-03-13T10:08:15;96306.84;;;18.10;58.28
9281;BME280;4679;47.966;7.958;2023-03-13T10:10:20;96306.03;;;18.10;57.50
9281;BME280;4679;47.966;7.958;2023-03-13T10:12:28;96312.56;;;18.17;57.65
9281;BME280;4679;47.966;7.958;2023-03-13T10:14:37;96324.25;;;18.21;57.68
9281;BME280;4679;47.966;7.958;2023-03-13T10:16:43;96305.63;;;18.34;57.43
9281;BME280;4679;47.966;7.958;2023-03-13T10:18:54;96312.63;;;18.43;57.07
9281;BME280;4679;47.966;7.958;2023-03-13T10:20:59;96301.72;;;18.48;56.90
9281;BME280;4679;47.966;7.958;2023-03-13T10:23:05;96301.72;;;18.57;56.72
9281;BME280;4679;47.966;7.958;2023-03-13T10:25:20;96288.50;;;18.60;56.55
9281;BME280;4679;47.966;7.958;2023-03-13T10:27:25;96287.84;;;18.81;56.32
9281;BME280;4679;47.966;7.958;2023-03-13T10:29:28;96280.72;;;19.02;55.89
9281;BME280;4679;47.966;7.958;2023-03-13T10:31:32;96262.69;;;19.11;55.56
9281;BME280;4679;47.966;7.958;2023-03-13T10:33:35;96273.75;;;19.10;55.57
9281;BME280;4679;47.966;7.958;2023-03-13T10:35:41;96264.06;;;19.26;55.00
9281;BME280;4679;47.966;7.958;2023-03-13T10:37:43;96276.69;;;19.43;54.40
9281;BME280;4679;47.966;7.958;2023-03-13T10:39:45;96248.22;;;19.50;54.38
9281;BME280;4679;47.966;7.958;2023-03-13T10:41:47;96255.94;;;19.60;54.20
9281;BME280;4679;47.966;7.958;2023-03-13T10:43:51;96240.72;;;19.64;54.00
9281;BME280;4679;47.966;7.958;2023-03-13T10:45:53;96235.44;;;19.77;53.68
9281;BME280;4679;47.966;7.958;2023-03-13T10:47:59;96239.03;;;19.89;53.51
9281;BME280;4679;47.966;7.958;2023-03-13T10:50:03;96222.53;;;19.99;53.01
9281;BME280;4679;47.966;7.958;2023-03-13T10:52:28;96204.69;;;20.16;52.96
9281;BME280;4679;47.966;7.958;2023-03-13T10:54:31;96219.56;;;20.34;52.24
9281;BME280;4679;47.966;7.958;2023-03-13T10:56:34;96202.47;;;20.39;51.90
9281;BME280;4679;47.966;7.958;2023-03-13T10:58:40;96191.50;;;20.44;51.98
9281;BME280;4679;47.966;7.958;2023-03-13T11:00:43;96195.22;;;20.51;52.10
9281;BME280;4679;47.966;7.958;2023-03-13T11:02:44;96189.97;;;20.55;51.72
9281;BME280;4679;47.966;7.958;2023-03-13T11:04:46;96175.19;;;20.61;51.04
9281;BME280;4679;47.966;7.958;2023-03-13T11:06:58;96184.47;;;20.84;50.56
9281;BME280;4679;47.966;7.958;2023-03-13T11:09:10;96183.19;;;21.02;50.57
9281;BME280;4679;47.966;7.958;2023-03-13T11:11:17;96172.06;;;21.04;50.57
9281;BME280;4679;47.966;7.958;2023-03-13T11:13:28;96167.81;;;21.15;50.23
9281;BME280;4679;47.966;7.958;2023-03-13T11:15:34;96173.34;;;21.19;50.04
9281;BME280;4679;47.966;7.958;2023-03-13T11:17:40;96173.91;;;21.24;49.88
9281;BME280;4679;47.966;7.958;2023-03-13T11:19:54;96165.94;;;21.28;49.42
9281;BME280;4679;47.966;7.958;2023-03-13T11:22:07;96164.69;;;21.25;49.34
9281;BME280;4679;47.966;7.958;2023-03-13T11:24:20;96150.34;;;21.33;48.84
9281;BME280;4679;47.966;7.958;2023-03-13T11:26:29;96154.28;;;21.48;48.80
9281;BME280;4679;47.966;7.958;2023-03-13T11:28:44;96131.09;;;21.47;48.43
9281;BME280;4679;47.966;7.958;2023-03-13T11:30:57;96134.69;;;21.39;48.55
9281;BME280;4679;47.966;7.958;2023-03-13T11:33:04;96133.34;;;21.45;48.45
9281;BME280;4679;47.966;7.958;2023-03-13T11:35:16;96128.19;;;21.52;48.34
9281;BME280;4679;47.966;7.958;2023-03-13T11:37:20;96117.38;;;21.52;47.54
9281;BME280;4679;47.966;7.958;2023-03-13T11:39:45;96106.00;;;21.59;47.88
9281;BME280;4679;47.966;7.958;2023-03-13T11:41:59;96095.09;;;21.55;47.88
9281;BME280;4679;47.966;7.958;2023-03-13T11:44:15;96091.06;;;21.49;47.50
9281;BME280;4679;47.966;7.958;2023-03-13T11:46:27;96107.38;;;21.65;47.46
9281;BME280;4679;47.966;7.958;2023-03-13T11:48:43;96092.97;;;21.61;47.20
9281;BME280;4679;47.966;7.958;2023-03-13T11:50:51;96088.00;;;21.63;47.10
9281;BME280;4679;47.966;7.958;2023-03-13T11:53:12;96087.97;;;21.75;46.72
9281;BME280;4679;47.966;7.958;2023-03-13T11:55:34;96086.19;;;21.79;46.54
9281;BME280;4679;47.966;7.958;2023-03-13T11:57:45;96084.38;;;21.83;46.38
9281;BME280;4679;47.966;7.958;2023-03-13T11:59:54;96083.13;;;21.93;46.48
9281;BME280;4679;47.966;7.958;2023-03-13T12:02:13;96072.97;;;21.90;46.20
9281;BME280;4679;47.966;7.958;2023-03-13T12:04:22;96063.75;;;22.03;45.96
9281;BME280;4679;47.966;7.958;2023-03-13T12:06:29;96061.16;;;21.94;45.76
9281;BME280;4679;47.966;7.958;2023-03-13T12:08:35;96047.44;;;21.87;45.47
9281;BME280;4679;47.966;7.958;2023-03-13T12:10:43;96053.63;;;22.00;45.44
9281;BME280;4679;47.966;7.958;2023-03-13T12:12:50;96050.91;;;22.00;45.40
9281;BME280;4679;47.966;7.958;2023-03-13T12:14:57;96031.56;;;21.98;45.30
9281;BME280;4679;47.966;7.958;2023-03-13T12:17:02;96023.00;;;21.96;45.32
9281;BME280;4679;47.966;7.958;2023-03-13T12:19:04;96018.31;;;21.81;45.51
9281;BME280;4679;47.966;7.958;2023-03-13T12:21:16;96018.78;;;21.83;45.44
9281;BME280;4679;47.966;7.958;2023-03-13T12:23:22;96001.78;;;21.82;45.19
9281;BME280;4679;47.966;7.958;2023-03-13T12:25:32;95995.50;;;21.78;45.41
9281;BME280;4679;47.966;7.958;2023-03-13T12:27:40;96001.28;;;21.92;44.52
9281;BME280;4679;47.966;7.958;2023-03-13T12:29:49;95989.78;;;22.07;44.39
9281;BME280;4679;47.966;7.958;2023-03-13T12:31:58;95974.09;;;22.13;44.49
9281;BME280;4679;47.966;7.958;2023-03-13T12:34:08;95975.91;;;22.09;44.48
9281;BME280;4679;47.966;7.958;2023-03-13T12:36:18;95956.66;;;22.10;44.51
9281;BME280;4679;47.966;7.958;2023-03-13T12:38:23;95953.34;;;22.17;44.49
9281;BME280;4679;47.966;7.958;2023-03-13T12:40:31;95956.94;;;22.21;44.37
9281;BME280;4679;47.966;7.958;2023-03-13T12:42:44;95950.94;;;22.28;44.26
9281;BME280;4679;47.966;7.958;2023-03-13T12:44:48;95939.16;;;22.36;43.90
9281;BME280;4679;47.966;7.958;2023-03-13T12:46:59;95946.22;;;22.40;43.91
9281;BME280;4679;47.966;7.958;2023-03-13T12:49:19;95933.06;;;22.55;43.45
9281;BME280;4679;47.966;7.958;2023-03-13T12:51:46;95916.41;;;22.84;43.04
9281;BME280;4679;47.966;7.958;2023-03-13T12:54:05;95914.53;;;23.04;43.13
9281;BME280;4679;47.966;7.958;2023-03-13T12:56:32;95908.25;;;23.00;42.94
9281;BME280;4679;47.966;7.958;2023-03-13T12:58:45;95903.41;;;22.90;43.42
9281;BME280;4679;47.966;7.958;2023-03-13T13:00:49;95889.53;;;22.75;43.41
9281;BME280;4679;47.966;7.958;2023-03-13T13:03:05;95885.50;;;22.85;43.04
9281;BME280;4679;47.966;7.958;2023-03-13T13:05:18;95891.47;;;23.10;42.71
9281;BME280;4679;47.966;7.958;2023-03-13T13:07:22;95883.91;;;23.00;42.89
9281;BME280;4679;47.966;7.958;2023-03-13T13:09:27;95870.63;;;22.95;42.65
9281;BME280;4679;47.966;7.958;2023-03-13T13:11:51;95866.16;;;22.83;42.73
9281;BME280;4679;47.966;7.958;2023-03-13T13:13:55;95863.88;;;22.85;42.73
9281;BME280;4679;47.966;7.958;2023-03-13T13:16:00;95854.44;;;22.79;42.97
9281;BME280;4679;47.966;7.958;2023-03-13T13:18:12;95851.88;;;22.51;43.05
9281;BME280;4679;47.966;7.958;2023-03-13T13:20:36;95857.28;;;22.35;43.34
9281;BME280;4679;47.966;7.958;2023-03-13T13:22:48;95857.03;;;22.25;43.38
9281;BME280;4679;47.966;7.958;2023-03-13T13:24:51;95842.38;;;22.26;43.20
9281;BME280;4679;47.966;7.958;2023-03-13T13:26:53;95845.34;;;22.36;43.13
9281;BME280;4679;47.966;7.958;2023-03-13T13:28:57;95826.66;;;22.47;42.91
9281;BME280;4679;47.966;7.958;2023-03-13T13:31:00;95827.59;;;22.70;42.21
9281;BME280;4679;47.966;7.958;2023-03-13T13:33:34;95822.59;;;22.88;42.04
9281;BME280;4679;47.966;7.958;2023-03-13T13:35:37;95830.06;;;22.95;42.03
9281;BME280;4679;47.966;7.958;2023-03-13T13:37:40;95816.97;;;22.97;41.98
9281;BME280;4679;47.966;7.958;2023-03-13T13:39:45;95823.66;;;22.84;42.17
9281;BME280;4679;47.966;7.958;2023-03-13T13:41:49;95819.84;;;22.53;42.48
9281;BME280;4679;47.966;7.958;2023-03-13T13:46:33;95806.13;;;22.27;42.79
9281;BME280;4679;47.966;7.958;2023-03-13T13:48:35;95810.06;;;22.29;43.17
9281;BME280;4679;47.966;7.958;2023-03-13T13:51:21;95803.47;;;22.46;42.67
9281;BME280;4679;47.966;7.958;2023-03-13T13:53:29;95802.63;;;22.26;42.78
9281;BME280;4679;47.966;7.958;2023-03-13T13:55:41;95814.59;;;22.09;42.92
9281;BME280;4679;47.966;7.958;2023-03-13T13:57:43;95798.44;;;21.97;43.34
9281;BME280;4679;47.966;7.958;2023-03-13T13:59:48;95798.09;;;21.83;43.59
9281;BME280;4679;47.966;7.958;2023-03-13T14:02:14;95796.00;;;21.76;43.50
9281;BME280;4679;47.966;7.958;2023-03-13T14:04:23;95785.38;;;21.68;43.89
9281;BME280;4679;47.966;7.958;2023-03-13T14:06:31;95774.88;;;21.51;44.27
9281;BME280;4679;47.966;7.958;2023-03-13T14:08:36;95783.47;;;21.40;44.14
9281;BME280;4679;47.966;7.958;2023-03-13T14:10:40;95776.78;;;21.34;44.62
9281;BME280;4679;47.966;7.958;2023-03-13T14:12:46;95768.31;;;21.20;44.46
9281;BME280;4679;47.966;7.958;2023-03-13T14:15:06;95768.06;;;21.13;44.84
9281;BME280;4679;47.966;7.958;2023-03-13T14:17:09;95763.69;;;21.08;45.04
9281;BME280;4679;47.966;7.958;2023-03-13T14:19:25;95768.84;;;20.86;45.71
9281;BME280;4679;47.966;7.958;2023-03-13T14:21:27;95779.69;;;20.74;45.89
9281;BME280;4679;47.966;7.958;2023-03-13T14:23:33;95754.19;;;20.71;45.90
9281;BME280;4679;47.966;7.958;2023-03-13T14:25:42;95742.13;;;20.81;46.05
9281;BME280;4679;47.966;7.958;2023-03-13T14:27:47;95746.81;;;21.12;45.70
9281;BME280;4679;47.966;7.958;2023-03-13T14:29:59;95746.00;;;21.83;44.90
9281;BME280;4679;47.966;7.958;2023-03-13T14:32:02;95741.72;;;21.97;44.43
9281;BME280;4679;47.966;7.958;2023-03-13T14:34:08;95742.50;;;21.51;45.44
9281;BME280;4679;47.966;7.958;2023-03-13T14:36:12;95743.25;;;21.35;45.47
9281;BME280;4679;47.966;7.958;2023-03-13T14:38:16;95735.97;;;21.52;45.64
9281;BME280;4679;47.966;7.958;2023-03-13T14:40:24;95731.97;;;22.08;44.61
9281;BME280;4679;47.966;7.958;2023-03-13T14:42:26;95725.31;;;21.90;45.08
9281;BME280;4679;47.966;7.958;2023-03-13T14:44:30;95710.25;;;21.58;45.32
9281;BME280;4679;47.966;7.958;2023-03-13T14:46:34;95709.13;;;21.43;45.78
9281;BME280;4679;47.966;7.958;2023-03-13T14:48:40;95706.78;;;21.41;46.10
9281;BME280;4679;47.966;7.958;2023-03-13T14:50:43;95707.47;;;22.01;44.87
9281;BME280;4679;47.966;7.958;2023-03-13T14:52:47;95703.63;;;22.02;45.14
9281;BME280;4679;47.966;7.958;2023-03-13T14:54:52;95709.31;;;22.13;44.83
9281;BME280;4679;47.966;7.958;2023-03-13T14:57:02;95691.06;;;22.64;44.20
9281;BME280;4679;47.966;7.958;2023-03-13T14:59:14;95681.97;;;22.72;44.25
9281;BME280;4679;47.966;7.958;2023-03-13T15:01:24;95667.31;;;22.73;43.98
9281;BME280;4679;47.966;7.958;2023-03-13T15:03:31;95665.66;;;22.69;43.99
9281;BME280;4679;47.966;7.958;2023-03-13T15:05:33;95668.53;;;22.76;44.14
9281;BME280;4679;47.966;7.958;2023-03-13T15:07:39;95643.09;;;23.00;43.85
9281;BME280;4679;47.966;7.958;2023-03-13T15:09:42;95623.91;;;23.08;43.87
9281;BME280;4679;47.966;7.958;2023-03-13T15:11:52;95632.03;;;23.08;43.79
9281;BME280;4679;47.966;7.958;2023-03-13T15:13:55;95633.91;;;22.66;44.28
9281;BME280;4679;47.966;7.958;2023-03-13T15:15:58;95613.84;;;22.67;44.46
9281;BME280;4679;47.966;7.958;2023-03-13T15:18:00;95616.06;;;22.80;44.01
9281;BME280;4679;47.966;7.958;2023-03-13T15:20:02;95607.16;;;22.80;44.01
9281;BME280;4679;47.966;7.958;2023-03-13T15:22:11;95598.06;;;22.88;43.94
9281;BME280;4679;47.966;7.958;2023-03-13T15:24:14;95589.50;;;23.09;43.28
9281;BME280;4679;47.966;7.958;2023-03-13T15:26:16;95573.25;;;23.32;42.94
9281;BME280;4679;47.966;7.958;2023-03-13T15:28:19;95577.97;;;23.35;43.06
9281;BME280;4679;47.966;7.958;2023-03-13T15:30:21;95574.09;;;23.36;42.88
9281;BME280;4679;47.966;7.958;2023-03-13T15:32:25;95561.28;;;23.06;43.27
9281;BME280;4679;47.966;7.958;2023-03-13T15:34:27;95565.38;;;22.77;43.89
9281;BME280;4679;47.966;7.958;2023-03-13T15:36:30;95559.59;;;22.56;44.02
9281;BME280;4679;47.966;7.958;2023-03-13T15:38:32;95567.00;;;22.40;44.32
9281;BME280;4679;47.966;7.958;2023-03-13T15:40:35;95563.59;;;22.24;44.65
9281;BME280;4679;47.966;7.958;2023-03-13T15:42:37;95570.22;;;22.07;44.42
9281;BME280;4679;47.966;7.958;2023-03-13T15:44:38;95575.03;;;21.98;44.82
9281;BME280;4679;47.966;7.958;2023-03-13T15:46:40;95558.22;;;21.89;44.78
9281;BME280;4679;47.966;7.958;2023-03-13T15:48:42;95562.25;;;21.79;44.67
9281;BME280;4679;47.966;7.958;2023-03-13T15:50:44;95543.19;;;21.72;44.91
9281;BME280;4679;47.966;7.958;2023-03-13T15:52:45;95539.94;;;21.63;44.97
9281;BME280;4679;47.966;7.958;2023-03-13T15:54:48;95552.91;;;21.57;44.94
9281;BME280;4679;47.966;7.958;2023-03-13T15:56:51;95541.97;;;21.50;44.62
9281;BME280;4679;47.966;7.958;2023-03-13T15:58:54;95534.84;;;21.42;44.86
9281;BME280;4679;47.966;7.958;2023-03-13T16:00:56;95533.13;;;21.34;44.97
9281;BME280;4679;47.966;7.958;2023-03-13T16:02:59;95522.50;;;21.25;45.03
9281;BME280;4679;47.966;7.958;2023-03-13T16:05:00;95521.66;;;21.21;45.34
9281;BME280;4679;47.966;7.958;2023-03-13T16:07:08;95502.66;;;21.18;45.14
9281;BME280;4679;47.966;7.958;2023-03-13T16:09:10;95496.75;;;21.28;44.43
9281;BME280;4679;47.966;7.958;2023-03-13T16:11:16;95494.22;;;21.35;44.91
9281;BME280;4679;47.966;7.958;2023-03-13T16:13:19;95488.94;;;21.42;44.33
9281;BME280;4679;47.966;7.958;2023-03-13T16:15:21;95491.66;;;21.42;44.42
9281;BME280;4679;47.966;7.958;2023-03-13T16:17:23;95479.81;;;21.47;44.42
9281;BME280;4679;47.966;7.958;2023-03-13T16:19:27;95469.88;;;21.51;44.31
9281;BME280;4679;47.966;7.958;2023-03-13T16:21:31;95453.16;;;21.45;44.36
9281;BME280;4679;47.966;7.958;2023-03-13T16:23:34;95443.78;;;21.39;44.24
9281;BME280;4679;47.966;7.958;2023-03-13T16:25:36;95439.81;;;21.33;44.61
9281;BME280;4679;47.966;7.958;2023-03-13T16:27:38;95422.28;;;21.23;44.72
9281;BME280;4679;47.966;7.958;2023-03-13T16:29:42;95424.00;;;21.16;44.65
9281;BME280;4679;47.966;7.958;2023-03-13T16:31:44;95427.47;;;21.16;44.88
9281;BME280;4679;47.966;7.958;2023-03-13T16:33:47;95427.38;;;21.13;44.63
9281;BME280;4679;47.966;7.958;2023-03-13T16:35:50;95445.78;;;21.07;44.86
9281;BME280;4679;47.966;7.958;2023-03-13T16:37:54;95433.78;;;21.04;44.76
9281;BME280;4679;47.966;7.958;2023-03-13T16:39:56;95424.81;;;21.00;44.63
9281;BME280;4679;47.966;7.958;2023-03-13T16:41:58;95419.69;;;20.95;45.06
9281;BME280;4679;47.966;7.958;2023-03-13T16:44:00;95431.88;;;20.89;45.05
9281;BME280;4679;47.966;7.958;2023-03-13T16:46:07;95426.06;;;20.87;44.91
9281;BME280;4679;47.966;7.958;2023-03-13T16:48:15;95409.31;;;20.97;44.60
9281;BME280;4679;47.966;7.958;2023-03-13T16:50:23;95402.38;;;20.96;44.42
9281;BME280;4679;47.966;7.958;2023-03-13T16:52:25;95398.41;;;20.90;44.52
9281;BME280;4679;47.966;7.958;2023-03-13T16:54:27;95387.78;;;20.82;44.41
9281;BME280;4679;47.966;7.958;2023-03-13T16:56:30;95384.16;;;20.74;44.39
9281;BME280;4679;47.966;7.958;2023-03-13T16:58:33;95381.16;;;20.60;44.30
9281;BME280;4679;47.966;7.958;2023-03-13T17:00:34;95367.75;;;20.48;44.71
9281;BME280;4679;47.966;7.958;2023-03-13T17:02:37;95366.22;;;20.47;44.27
9281;BME280;4679;47.966;7.958;2023-03-13T17:04:39;95361.00;;;20.38;44.63
9281;BME280;4679;47.966;7.958;2023-03-13T17:06:42;95354.88;;;20.25;44.70
9281;BME280;4679;47.966;7.958;2023-03-13T17:08:44;95349.31;;;20.18;44.83
9281;BME280;4679;47.966;7.958;2023-03-13T17:10:46;95341.44;;;20.10;45.29
9281;BME280;4679;47.966;7.958;2023-03-13T17:12:48;95336.22;;;20.01;45.31
9281;BME280;4679;47.966;7.958;2023-03-13T17:14:50;95329.34;;;19.88;45.49
9281;BME280;4679;47.966;7.958;2023-03-13T17:16:51;95324.31;;;19.71;45.80
9281;BME280;4679;47.966;7.958;2023-03-13T17:18:55;95336.25;;;19.57;46.09
9281;BME280;4679;47.966;7.958;2023-03-13T17:20:58;95324.22;;;19.39;46.09
9281;BME280;4679;47.966;7.958;2023-03-13T17:23:00;95329.63;;;19.27;46.07
9281;BME280;4679;47.966;7.958;2023-03-13T17:25:02;95333.94;;;19.16;46.42
9281;BME280;4679;47.966;7.958;2023-03-13T17:27:05;95319.44;;;19.05;46.85
9281;BME280;4679;47.966;7.958;2023-03-13T17:29:14;95324.28;;;18.87;47.18
9281;BME280;4679;47.966;7.958;2023-03-13T17:31:17;95312.03;;;18.61;47.72
9281;BME280;4679;47.966;7.958;2023-03-13T17:33:20;95324.25;;;18.47;48.03
9281;BME280;4679;47.966;7.958;2023-03-13T17:35:23;95293.38;;;18.28;48.32
9281;BME280;4679;47.966;7.958;2023-03-13T17:37:25;95306.03;;;18.16;48.57
9281;BME280;4679;47.966;7.958;2023-03-13T17:39:27;95307.22;;;17.94;48.99
9281;BME280;4679;47.966;7.958;2023-03-13T17:41:30;95321.44;;;17.82;49.52
9281;BME280;4679;47.966;7.958;2023-03-13T17:43:32;95326.53;;;17.75;49.62
9281;BME280;4679;47.966;7.958;2023-03-13T17:45:34;95323.06;;;17.75;49.67
9281;BME280;4679;47.966;7.958;2023-03-13T17:47:37;95312.34;;;17.75;49.86
9281;BME280;4679;47.966;7.958;2023-03-13T17:49:38;95300.16;;;17.77;49.53
9281;BME280;4679;47.966;7.958;2023-03-13T17:51:42;95330.91;;;17.80;49.82
9281;BME280;4679;47.966;7.958;2023-03-13T17:53:46;95330.59;;;17.81;49.76
9281;BME280;4679;47.966;7.958;2023-03-13T17:55:47;95337.84;;;17.81;49.69
9281;BME280;4679;47.966;7.958;2023-03-13T17:57:49;95327.13;;;17.81;49.56
9281;BME280;4679;47.966;7.958;2023-03-13T17:59:52;95316.50;;;17.84;49.32
9281;BME280;4679;47.966;7.958;2023-03-13T18:01:54;95311.25;;;17.88;49.10
9281;BME280;4679;47.966;7.958;2023-03-13T18:03:56;95303.44;;;17.95;49.18
9281;BME280;4679;47.966;7.958;2023-03-13T18:05:58;95309.38;;;18.13;48.96
9281;BME280;4679;47.966;7.958;2023-03-13T18:08:02;95296.03;;;18.41;48.38
9281;BME280;4679;47.966;7.958;2023-03-13T18:10:08;95304.66;;;18.58;47.88
9281;BME280;4679;47.966;7.958;2023-03-13T18:12:11;95286.75;;;18.63;47.60
9281;BME280;4679;47.966;7.958;2023-03-13T18:14:13;95309.44;;;18.65;47.59
9281;BME280;4679;47.966;7.958;2023-03-13T18:16:27;95275.38;;;18.81;47.07
9281;BME280;4679;47.966;7.958;2023-03-13T18:18:36;95289.91;;;18.92;46.80
9281;BME280;4679;47.966;7.958;2023-03-13T18:20:38;95288.72;;;19.06;46.32
9281;BME280;4679;47.966;7.958;2023-03-13T18:22:40;95287.34;;;19.12;46.15
9281;BME280;4679;47.966;7.958;2023-03-13T18:24:43;95277.97;;;19.06;46.00
9281;BME280;4679;47.966;7.958;2023-03-13T18:26:46;95265.44;;;18.97;46.19